sensor_id;sensor_type;location;lat;lon;timestamp;P1;durP1;ratioP1;P2;durP2;ratioP2
4508;SDS011;2267;48.816;9.230;2023-01-16T00:00:04;3.70;;;1.70;;
4508;SDS011;2267;48.816;9.230;2023-01-16T00:02:32;4.10;;;2.43;;
4508;SDS011;2267;48.816;9.230;2023-01-16T00:04:59;3.30;;;1.87;;
4508;SDS011;2267;48.816;9.230;2023-01-16T00:07:26;2.57;;;2.23;;
4508;SDS011;2267;48.816;9.230;2023-01-16T00:09:53;5.20;;;2.50;;
4508;SDS011;2267;48.816;9.230;2023-01-16T00:12:19;4.03;;;1.93;;
4508;SDS011;2267;48.816;9.230;2023-01-16T00:14:46;3.40;;;1.97;;
4508;SDS011;2267;48.816;9.230;2023-01-16T00:17:13;3.40;;;1.87;;
4508;SDS011;2267;48.816;9.230;2023-01-16T00:19:40;2.37;;;1.80;;
4508;SDS011;2267;48.816;9.230;2023-01-16T00:22:06;3.80;;;1.90;;
4508;SDS011;2267;48.816;9.230;2023-01-16T00:24:33;4.03;;;2.00;;
4508;SDS011;2267;48.816;9.230;2023-01-16T00:27:00;4.50;;;2.17;;
4508;SDS011;2267;48.816;9.230;2023-01-16T00:29:27;3.13;;;1.77;;
4508;SDS011;2267;48.816;9.230;2023-01-16T00:31:53;3.27;;;1.90;;
4508;SDS011;2267;48.816;9.230;2023-01-16T00:34:20;3.20;;;1.63;;
4508;SDS011;2267;48.816;9.230;2023-01-16T00:36:47;3.00;;;1.80;;
4508;SDS011;2267;48.816;9.230;2023-01-16T00:39:14;3.63;;;1.90;;
4508;SDS011;2267;48.816;9.230;2023-01-16T00:41:40;2.70;;;1.97;;
4508;SDS011;2267;48.816;9.230;2023-01-16T00:44:07;3.70;;;1.67;;
4508;SDS011;2267;48.816;9.230;2023-01-16T00:46:34;3.53;;;2.20;;
4508;SDS011;2267;48.816;9.230;2023-01-16T00:49:01;1.80;;;1.50;;
4508;SDS011;2267;48.816;9.230;2023-01-16T00:51:27;4.30;;;2.20;;
4508;SDS011;2267;48.816;9.230;2023-01-16T00:53:54;2.67;;;2.13;;
4508;SDS011;2267;48.816;9.230;2023-01-16T00:56:21;2.33;;;1.87;;
4508;SDS011;2267;48.816;9.230;2023-01-16T00:58:48;2.93;;;2.00;;
4508;SDS011;2267;48.816;9.230;2023-01-16T01:01:14;2.40;;;1.60;;
4508;SDS011;2267;48.816;9.230;2023-01-16T01:03:41;4.40;;;1.57;;
4508;SDS011;2267;48.816;9.230;2023-01-16T01:06:09;3.10;;;1.63;;
4508;SDS011;2267;48.816;9.230;2023-01-16T01:08:37;2.77;;;1.90;;
4508;SDS011;2267;48.816;9.230;2023-01-16T01:11:11;2.40;;;1.50;;
4508;SDS011;2267;48.816;9.230;2023-01-16T01:13:40;4.50;;;2.53;;
4508;SDS011;2267;48.816;9.230;2023-01-16T01:16:08;2.63;;;1.73;;
4508;SDS011;2267;48.816;9.230;2023-01-16T01:18:37;4.10;;;1.40;;
4508;SDS011;2267;48.816;9.230;2023-01-16T01:21:04;3.27;;;1.83;;
4508;SDS011;2267;48.816;9.230;2023-01-16T01:23:31;3.07;;;2.00;;
4508;SDS011;2267;48.816;9.230;2023-01-16T01:26:04;5.60;;;3.03;;
4508;SDS011;2267;48.816;9.230;2023-01-16T01:28:41;3.93;;;2.70;;
4508;SDS011;2267;48.816;9.230;2023-01-16T01:31:10;4.20;;;3.00;;
4508;SDS011;2267;48.816;9.230;2023-01-16T01:33:38;6.17;;;3.43;;
4508;SDS011;2267;48.816;9.230;2023-01-16T01:36:05;5.43;;;3.27;;
4508;SDS011;2267;48.816;9.230;2023-01-16T01:38:33;5.40;;;3.70;;
4508;SDS011;2267;48.816;9.230;2023-01-16T01:41:00;5.80;;;3.20;;
4508;SDS011;2267;48.816;9.230;2023-01-16T01:46:23;5.83;;;3.50;;
4508;SDS011;2267;48.816;9.230;2023-01-16T01:48:56;5.47;;;3.20;;
4508;SDS011;2267;48.816;9.230;2023-01-16T01:51:27;4.10;;;3.23;;
4508;SDS011;2267;48.816;9.230;2023-01-16T01:54:01;4.80;;;3.30;;
4508;SDS011;2267;48.816;9.230;2023-01-16T01:56:33;5.40;;;3.33;;
4508;SDS011;2267;48.816;9.230;2023-01-16T01:59:07;3.77;;;2.77;;
4508;SDS011;2267;48.816;9.230;2023-01-16T02:01:40;5.70;;;3.30;;
4508;SDS011;2267;48.816;9.230;2023-01-16T02:04:09;5.00;;;3.60;;
4508;SDS011;2267;48.816;9.230;2023-01-16T02:06:43;3.57;;;3.20;;
4508;SDS011;2267;48.816;9.230;2023-01-16T02:09:12;4.83;;;2.90;;
4508;SDS011;2267;48.816;9.230;2023-01-16T02:11:46;5.00;;;2.90;;
4508;SDS011;2267;48.816;9.230;2023-01-16T02:14:15;3.47;;;2.50;;
4508;SDS011;2267;48.816;9.230;2023-01-16T02:16:44;2.73;;;2.53;;
4508;SDS011;2267;48.816;9.230;2023-01-16T02:31:06;4.33;;;3.07;;
4508;SDS011;2267;48.816;9.230;2023-01-16T02:37:08;3.53;;;2.87;;
4508;SDS011;2267;48.816;9.230;2023-01-16T02:39:53;4.00;;;2.73;;
4508;SDS011;2267;48.816;9.230;2023-01-16T02:48:28;4.10;;;3.70;;
4508;SDS011;2267;48.816;9.230;2023-01-16T02:54:14;3.20;;;2.00;;
4508;SDS011;2267;48.816;9.230;2023-01-16T02:57:01;4.33;;;2.60;;
4508;SDS011;2267;48.816;9.230;2023-01-16T02:59:33;4.90;;;2.87;;
4508;SDS011;2267;48.816;9.230;2023-01-16T03:02:01;3.70;;;2.30;;
4508;SDS011;2267;48.816;9.230;2023-01-16T03:04:39;3.80;;;2.20;;
4508;SDS011;2267;48.816;9.230;2023-01-16T03:07:21;5.00;;;2.70;;
4508;SDS011;2267;48.816;9.230;2023-01-16T03:18:04;3.50;;;2.00;;
4508;SDS011;2267;48.816;9.230;2023-01-16T03:20:50;4.40;;;2.10;;
4508;SDS011;2267;48.816;9.230;2023-01-16T03:23:27;3.10;;;1.87;;
4508;SDS011;2267;48.816;9.230;2023-01-16T03:26:15;3.10;;;2.07;;
4508;SDS011;2267;48.816;9.230;2023-01-16T03:29:01;3.33;;;2.00;;
4508;SDS011;2267;48.816;9.230;2023-01-16T03:36:57;3.70;;;1.97;;
4508;SDS011;2267;48.816;9.230;2023-01-16T03:39:44;3.70;;;2.50;;
4508;SDS011;2267;48.816;9.230;2023-01-16T03:42:15;6.67;;;2.47;;
4508;SDS011;2267;48.816;9.230;2023-01-16T03:44:51;2.33;;;1.60;;
4508;SDS011;2267;48.816;9.230;2023-01-16T03:47:25;5.17;;;2.43;;
4508;SDS011;2267;48.816;9.230;2023-01-16T03:50:01;3.93;;;1.70;;
4508;SDS011;2267;48.816;9.230;2023-01-16T03:52:32;3.53;;;2.17;;
4508;SDS011;2267;48.816;9.230;2023-01-16T03:58:31;4.10;;;2.07;;
4508;SDS011;2267;48.816;9.230;2023-01-16T04:03:58;2.30;;;1.93;;
4508;SDS011;2267;48.816;9.230;2023-01-16T04:06:49;4.33;;;2.40;;
4508;SDS011;2267;48.816;9.230;2023-01-16T04:09:31;3.60;;;1.90;;
4508;SDS011;2267;48.816;9.230;2023-01-16T04:12:06;3.97;;;1.83;;
4508;SDS011;2267;48.816;9.230;2023-01-16T04:14:33;3.30;;;1.97;;
4508;SDS011;2267;48.816;9.230;2023-01-16T04:17:02;3.10;;;2.00;;
4508;SDS011;2267;48.816;9.230;2023-01-16T04:19:30;3.17;;;2.23;;
4508;SDS011;2267;48.816;9.230;2023-01-16T04:21:59;3.20;;;2.27;;
4508;SDS011;2267;48.816;9.230;2023-01-16T04:24:30;3.00;;;2.20;;
4508;SDS011;2267;48.816;9.230;2023-01-16T04:26:57;3.60;;;2.50;;
4508;SDS011;2267;48.816;9.230;2023-01-16T04:29:24;4.33;;;2.07;;
4508;SDS011;2267;48.816;9.230;2023-01-16T04:31:52;4.20;;;2.00;;
4508;SDS011;2267;48.816;9.230;2023-01-16T04:34:18;4.83;;;2.20;;
4508;SDS011;2267;48.816;9.230;2023-01-16T04:36:45;5.13;;;2.60;;
4508;SDS011;2267;48.816;9.230;2023-01-16T04:39:12;3.80;;;2.10;;
4508;SDS011;2267;48.816;9.230;2023-01-16T04:41:38;4.90;;;2.13;;
4508;SDS011;2267;48.816;9.230;2023-01-16T04:44:07;2.73;;;1.93;;
4508;SDS011;2267;48.816;9.230;2023-01-16T04:46:35;3.60;;;2.20;;
4508;SDS011;2267;48.816;9.230;2023-01-16T04:49:04;3.23;;;1.90;;
4508;SDS011;2267;48.816;9.230;2023-01-16T04:51:32;4.43;;;1.87;;
4508;SDS011;2267;48.816;9.230;2023-01-16T04:53:58;3.27;;;2.00;;
4508;SDS011;2267;48.816;9.230;2023-01-16T04:56:25;3.40;;;1.50;;
4508;SDS011;2267;48.816;9.230;2023-01-16T04:58:52;3.53;;;1.53;;
4508;SDS011;2267;48.816;9.230;2023-01-16T05:01:19;2.93;;;1.50;;
4508;SDS011;2267;48.816;9.230;2023-01-16T05:03:47;3.30;;;1.73;;
4508;SDS011;2267;48.816;9.230;2023-01-16T05:06:13;2.73;;;2.10;;
4508;SDS011;2267;48.816;9.230;2023-01-16T05:08:40;2.30;;;1.57;;
4508;SDS011;2267;48.816;9.230;2023-01-16T05:11:07;2.10;;;1.60;;
4508;SDS011;2267;48.816;9.230;2023-01-16T05:13:34;1.80;;;1.40;;
4508;SDS011;2267;48.816;9.230;2023-01-16T05:16:00;2.83;;;1.70;;
4508;SDS011;2267;48.816;9.230;2023-01-16T05:18:27;2.60;;;1.80;;
4508;SDS011;2267;48.816;9.230;2023-01-16T05:20:54;4.07;;;1.93;;
4508;SDS011;2267;48.816;9.230;2023-01-16T05:23:22;2.00;;;1.70;;
4508;SDS011;2267;48.816;9.230;2023-01-16T05:25:48;2.80;;;1.50;;
4508;SDS011;2267;48.816;9.230;2023-01-16T05:28:15;3.47;;;1.73;;
4508;SDS011;2267;48.816;9.230;2023-01-16T05:30:42;3.00;;;1.53;;
4508;SDS011;2267;48.816;9.230;2023-01-16T05:33:08;2.60;;;1.60;;
4508;SDS011;2267;48.816;9.230;2023-01-16T05:35:35;2.30;;;1.70;;
4508;SDS011;2267;48.816;9.230;2023-01-16T05:38:02;4.50;;;2.80;;
4508;SDS011;2267;48.816;9.230;2023-01-16T05:40:29;4.03;;;3.50;;
4508;SDS011;2267;48.816;9.230;2023-01-16T05:42:56;3.60;;;3.30;;
4508;SDS011;2267;48.816;9.230;2023-01-16T05:45:22;5.03;;;3.57;;
4508;SDS011;2267;48.816;9.230;2023-01-16T05:47:49;4.00;;;3.60;;
4508;SDS011;2267;48.816;9.230;2023-01-16T05:50:16;2.40;;;2.20;;
4508;SDS011;2267;48.816;9.230;2023-01-16T05:52:43;3.80;;;2.57;;
4508;SDS011;2267;48.816;9.230;2023-01-16T05:55:10;2.80;;;1.97;;
4508;SDS011;2267;48.816;9.230;2023-01-16T05:57:36;2.20;;;1.80;;
4508;SDS011;2267;48.816;9.230;2023-01-16T06:00:04;2.23;;;2.03;;
4508;SDS011;2267;48.816;9.230;2023-01-16T06:02:32;3.33;;;1.70;;
4508;SDS011;2267;48.816;9.230;2023-01-16T06:04:58;3.60;;;1.80;;
4508;SDS011;2267;48.816;9.230;2023-01-16T06:07:25;2.80;;;2.07;;
4508;SDS011;2267;48.816;9.230;2023-01-16T06:09:52;3.13;;;1.57;;
4508;SDS011;2267;48.816;9.230;2023-01-16T06:12:19;2.93;;;2.13;;
4508;SDS011;2267;48.816;9.230;2023-01-16T06:14:47;5.43;;;1.80;;
4508;SDS011;2267;48.816;9.230;2023-01-16T06:17:14;2.40;;;1.63;;
4508;SDS011;2267;48.816;9.230;2023-01-16T06:19:42;4.50;;;2.07;;
4508;SDS011;2267;48.816;9.230;2023-01-16T06:22:12;4.03;;;2.43;;
4508;SDS011;2267;48.816;9.230;2023-01-16T06:24:39;3.57;;;1.93;;
4508;SDS011;2267;48.816;9.230;2023-01-16T06:27:06;4.37;;;2.00;;
4508;SDS011;2267;48.816;9.230;2023-01-16T06:29:33;2.87;;;2.03;;
4508;SDS011;2267;48.816;9.230;2023-01-16T06:32:00;1.97;;;1.60;;
4508;SDS011;2267;48.816;9.230;2023-01-16T06:34:27;3.20;;;1.70;;
4508;SDS011;2267;48.816;9.230;2023-01-16T06:36:54;2.00;;;1.50;;
4508;SDS011;2267;48.816;9.230;2023-01-16T06:39:20;5.43;;;1.90;;
4508;SDS011;2267;48.816;9.230;2023-01-16T06:41:47;2.47;;;1.50;;
4508;SDS011;2267;48.816;9.230;2023-01-16T06:44:14;3.63;;;1.70;;
4508;SDS011;2267;48.816;9.230;2023-01-16T06:46:41;4.47;;;2.20;;
4508;SDS011;2267;48.816;9.230;2023-01-16T06:49:10;4.87;;;2.30;;
4508;SDS011;2267;48.816;9.230;2023-01-16T06:51:37;3.93;;;2.07;;
4508;SDS011;2267;48.816;9.230;2023-01-16T06:54:04;4.80;;;2.10;;
4508;SDS011;2267;48.816;9.230;2023-01-16T06:56:31;3.23;;;1.80;;
4508;SDS011;2267;48.816;9.230;2023-01-16T06:58:57;4.53;;;2.20;;
4508;SDS011;2267;48.816;9.230;2023-01-16T07:01:24;3.00;;;2.37;;
4508;SDS011;2267;48.816;9.230;2023-01-16T07:03:51;2.40;;;1.90;;
4508;SDS011;2267;48.816;9.230;2023-01-16T07:06:18;3.70;;;1.83;;
4508;SDS011;2267;48.816;9.230;2023-01-16T07:08:45;4.43;;;1.87;;
4508;SDS011;2267;48.816;9.230;2023-01-16T07:11:15;5.47;;;2.17;;
4508;SDS011;2267;48.816;9.230;2023-01-16T07:13:41;2.20;;;1.60;;
4508;SDS011;2267;48.816;9.230;2023-01-16T07:16:12;2.30;;;1.90;;
4508;SDS011;2267;48.816;9.230;2023-01-16T07:18:59;2.53;;;1.90;;
4508;SDS011;2267;48.816;9.230;2023-01-16T07:21:44;2.43;;;1.80;;
4508;SDS011;2267;48.816;9.230;2023-01-16T07:24:32;3.57;;;2.03;;
4508;SDS011;2267;48.816;9.230;2023-01-16T07:27:04;4.90;;;1.97;;
4508;SDS011;2267;48.816;9.230;2023-01-16T07:29:32;3.40;;;2.00;;
4508;SDS011;2267;48.816;9.230;2023-01-16T07:32:00;2.70;;;2.30;;
4508;SDS011;2267;48.816;9.230;2023-01-16T07:34:31;3.37;;;2.30;;
4508;SDS011;2267;48.816;9.230;2023-01-16T07:36:58;4.17;;;2.63;;
4508;SDS011;2267;48.816;9.230;2023-01-16T07:39:24;2.90;;;2.03;;
4508;SDS011;2267;48.816;9.230;2023-01-16T07:41:51;2.67;;;2.33;;
4508;SDS011;2267;48.816;9.230;2023-01-16T07:44:24;4.20;;;1.73;;
4508;SDS011;2267;48.816;9.230;2023-01-16T07:46:51;2.90;;;2.20;;
4508;SDS011;2267;48.816;9.230;2023-01-16T07:49:17;2.17;;;1.93;;
4508;SDS011;2267;48.816;9.230;2023-01-16T07:51:44;3.30;;;2.13;;
4508;SDS011;2267;48.816;9.230;2023-01-16T07:54:11;5.50;;;2.33;;
4508;SDS011;2267;48.816;9.230;2023-01-16T07:56:38;3.00;;;2.00;;
4508;SDS011;2267;48.816;9.230;2023-01-16T07:59:05;3.50;;;2.00;;
4508;SDS011;2267;48.816;9.230;2023-01-16T08:01:32;3.10;;;2.03;;
4508;SDS011;2267;48.816;9.230;2023-01-16T08:04:00;2.37;;;2.07;;
4508;SDS011;2267;48.816;9.230;2023-01-16T08:06:27;1.97;;;1.73;;
4508;SDS011;2267;48.816;9.230;2023-01-16T08:08:53;2.63;;;2.00;;
4508;SDS011;2267;48.816;9.230;2023-01-16T08:11:20;2.67;;;1.80;;
4508;SDS011;2267;48.816;9.230;2023-01-16T08:14:02;2.87;;;2.10;;
4508;SDS011;2267;48.816;9.230;2023-01-16T08:16:31;2.77;;;2.10;;
4508;SDS011;2267;48.816;9.230;2023-01-16T08:18:58;2.40;;;1.80;;
4508;SDS011;2267;48.816;9.230;2023-01-16T08:21:25;2.27;;;2.03;;
4508;SDS011;2267;48.816;9.230;2023-01-16T08:23:52;10.50;;;2.70;;
4508;SDS011;2267;48.816;9.230;2023-01-16T08:26:19;2.63;;;1.83;;
4508;SDS011;2267;48.816;9.230;2023-01-16T08:28:46;4.40;;;2.13;;
4508;SDS011;2267;48.816;9.230;2023-01-16T08:31:13;3.00;;;2.03;;
4508;SDS011;2267;48.816;9.230;2023-01-16T08:33:42;2.70;;;1.93;;
4508;SDS011;2267;48.816;9.230;2023-01-16T08:36:11;4.77;;;2.17;;
4508;SDS011;2267;48.816;9.230;2023-01-16T08:38:38;2.57;;;1.53;;
4508;SDS011;2267;48.816;9.230;2023-01-16T08:41:05;3.80;;;2.00;;
4508;SDS011;2267;48.816;9.230;2023-01-16T08:43:52;3.90;;;2.20;;
4508;SDS011;2267;48.816;9.230;2023-01-16T08:46:37;5.10;;;1.70;;
4508;SDS011;2267;48.816;9.230;2023-01-16T08:49:24;3.13;;;1.90;;
4508;SDS011;2267;48.816;9.230;2023-01-16T08:52:10;3.70;;;2.00;;
4508;SDS011;2267;48.816;9.230;2023-01-16T08:54:37;3.17;;;2.07;;
4508;SDS011;2267;48.816;9.230;2023-01-16T08:57:05;3.17;;;2.10;;
4508;SDS011;2267;48.816;9.230;2023-01-16T08:59:31;2.87;;;1.80;;
4508;SDS011;2267;48.816;9.230;2023-01-16T09:02:03;4.40;;;2.10;;
4508;SDS011;2267;48.816;9.230;2023-01-16T09:04:33;3.90;;;2.13;;
4508;SDS011;2267;48.816;9.230;2023-01-16T09:07:02;4.93;;;2.80;;
4508;SDS011;2267;48.816;9.230;2023-01-16T09:09:29;4.07;;;3.03;;
4508;SDS011;2267;48.816;9.230;2023-01-16T09:11:56;5.00;;;2.30;;
4508;SDS011;2267;48.816;9.230;2023-01-16T09:14:42;3.97;;;1.90;;
4508;SDS011;2267;48.816;9.230;2023-01-16T09:17:08;4.27;;;2.63;;
4508;SDS011;2267;48.816;9.230;2023-01-16T09:19:35;4.53;;;1.90;;
4508;SDS011;2267;48.816;9.230;2023-01-16T09:22:03;3.30;;;2.37;;
4508;SDS011;2267;48.816;9.230;2023-01-16T09:24:33;4.93;;;2.50;;
4508;SDS011;2267;48.816;9.230;2023-01-16T09:27:01;6.67;;;2.20;;
4508;SDS011;2267;48.816;9.230;2023-01-16T09:29:29;4.93;;;2.70;;
4508;SDS011;2267;48.816;9.230;2023-01-16T09:31:56;4.10;;;2.70;;
4508;SDS011;2267;48.816;9.230;2023-01-16T09:34:24;2.60;;;1.90;;
4508;SDS011;2267;48.816;9.230;2023-01-16T09:36:51;3.23;;;2.43;;
4508;SDS011;2267;48.816;9.230;2023-01-16T09:39:18;3.10;;;2.57;;
4508;SDS011;2267;48.816;9.230;2023-01-16T09:41:49;3.70;;;2.10;;
4508;SDS011;2267;48.816;9.230;2023-01-16T09:44:46;3.17;;;2.13;;
4508;SDS011;2267;48.816;9.230;2023-01-16T09:47:16;3.70;;;1.80;;
4508;SDS011;2267;48.816;9.230;2023-01-16T09:49:52;4.83;;;2.10;;
4508;SDS011;2267;48.816;9.230;2023-01-16T09:52:24;2.13;;;1.90;;
4508;SDS011;2267;48.816;9.230;2023-01-16T09:55:47;4.67;;;2.80;;
4508;SDS011;2267;48.816;9.230;2023-01-16T09:58:25;2.07;;;1.70;;
4508;SDS011;2267;48.816;9.230;2023-01-16T10:01:19;1.90;;;1.43;;
4508;SDS011;2267;48.816;9.230;2023-01-16T10:03:52;2.10;;;1.67;;
4508;SDS011;2267;48.816;9.230;2023-01-16T10:06:26;2.20;;;1.70;;
4508;SDS011;2267;48.816;9.230;2023-01-16T10:22:11;4.93;;;2.50;;
4508;SDS011;2267;48.816;9.230;2023-01-16T10:30:04;4.63;;;2.40;;
4508;SDS011;2267;48.816;9.230;2023-01-16T10:32:43;3.57;;;1.73;;
4508;SDS011;2267;48.816;9.230;2023-01-16T10:35:25;2.13;;;1.30;;
4508;SDS011;2267;48.816;9.230;2023-01-16T10:38:06;3.47;;;1.73;;
4508;SDS011;2267;48.816;9.230;2023-01-16T10:40:42;3.00;;;1.63;;
4508;SDS011;2267;48.816;9.230;2023-01-16T10:43:11;3.00;;;1.73;;
4508;SDS011;2267;48.816;9.230;2023-01-16T10:46:07;4.00;;;1.77;;
4508;SDS011;2267;48.816;9.230;2023-01-16T10:49:16;1.60;;;1.00;;
4508;SDS011;2267;48.816;9.230;2023-01-16T10:51:56;6.00;;;1.17;;
4508;SDS011;2267;48.816;9.230;2023-01-16T10:54:26;2.70;;;1.17;;
4508;SDS011;2267;48.816;9.230;2023-01-16T10:56:53;4.40;;;1.53;;
4508;SDS011;2267;48.816;9.230;2023-01-16T10:59:24;1.90;;;1.30;;
4508;SDS011;2267;48.816;9.230;2023-01-16T11:01:52;2.03;;;1.50;;
4508;SDS011;2267;48.816;9.230;2023-01-16T11:04:23;3.70;;;1.50;;
4508;SDS011;2267;48.816;9.230;2023-01-16T11:07:13;3.97;;;1.53;;
4508;SDS011;2267;48.816;9.230;2023-01-16T11:09:42;1.70;;;1.50;;
4508;SDS011;2267;48.816;9.230;2023-01-16T11:12:14;3.27;;;1.57;;
4508;SDS011;2267;48.816;9.230;2023-01-16T11:15:15;1.70;;;1.27;;
4508;SDS011;2267;48.816;9.230;2023-01-16T11:18:26;3.03;;;1.60;;
4508;SDS011;2267;48.816;9.230;2023-01-16T11:23:52;3.10;;;1.37;;
4508;SDS011;2267;48.816;9.230;2023-01-16T11:26:27;1.53;;;1.03;;
4508;SDS011;2267;48.816;9.230;2023-01-16T11:28:56;2.23;;;1.10;;
4508;SDS011;2267;48.816;9.230;2023-01-16T11:31:24;1.97;;;1.10;;
4508;SDS011;2267;48.816;9.230;2023-01-16T11:34:01;1.40;;;1.00;;
4508;SDS011;2267;48.816;9.230;2023-01-16T11:36:36;1.87;;;1.13;;
4508;SDS011;2267;48.816;9.230;2023-01-16T11:39:05;1.93;;;1.20;;
4508;SDS011;2267;48.816;9.230;2023-01-16T11:41:44;2.00;;;1.20;;
4508;SDS011;2267;48.816;9.230;2023-01-16T11:44:23;1.73;;;1.10;;
4508;SDS011;2267;48.816;9.230;2023-01-16T11:47:17;2.00;;;1.73;;
4508;SDS011;2267;48.816;9.230;2023-01-16T11:49:52;1.80;;;1.17;;
4508;SDS011;2267;48.816;9.230;2023-01-16T11:52:21;2.20;;;1.30;;
4508;SDS011;2267;48.816;9.230;2023-01-16T11:54:56;1.93;;;1.50;;
4508;SDS011;2267;48.816;9.230;2023-01-16T12:13:56;2.27;;;1.60;;
4508;SDS011;2267;48.816;9.230;2023-01-16T12:19:56;2.97;;;1.60;;
4508;SDS011;2267;48.816;9.230;2023-01-16T12:22:33;1.50;;;1.00;;
4508;SDS011;2267;48.816;9.230;2023-01-16T12:28:10;2.10;;;1.40;;
4508;SDS011;2267;48.816;9.230;2023-01-16T12:34:10;2.80;;;1.57;;
4508;SDS011;2267;48.816;9.230;2023-01-16T12:39:56;1.77;;;1.20;;
4508;SDS011;2267;48.816;9.230;2023-01-16T12:42:49;1.60;;;1.37;;
4508;SDS011;2267;48.816;9.230;2023-01-16T12:45:51;3.80;;;1.40;;
4508;SDS011;2267;48.816;9.230;2023-01-16T12:48:45;5.10;;;1.23;;
4508;SDS011;2267;48.816;9.230;2023-01-16T12:51:41;1.70;;;1.20;;
4508;SDS011;2267;48.816;9.230;2023-01-16T12:54:30;2.00;;;1.00;;
4508;SDS011;2267;48.816;9.230;2023-01-16T13:02:36;1.80;;;1.20;;
4508;SDS011;2267;48.816;9.230;2023-01-16T13:05:25;1.80;;;1.40;;
4508;SDS011;2267;48.816;9.230;2023-01-16T13:10:47;1.80;;;1.30;;
4508;SDS011;2267;48.816;9.230;2023-01-16T13:13:37;1.90;;;1.20;;
4508;SDS011;2267;48.816;9.230;2023-01-16T13:16:19;2.10;;;1.60;;
4508;SDS011;2267;48.816;9.230;2023-01-16T13:19:00;1.50;;;1.30;;
4508;SDS011;2267;48.816;9.230;2023-01-16T13:21:36;2.80;;;1.40;;
4508;SDS011;2267;48.816;9.230;2023-01-16T13:24:18;1.70;;;1.20;;
4508;SDS011;2267;48.816;9.230;2023-01-16T13:26:53;1.60;;;1.20;;
4508;SDS011;2267;48.816;9.230;2023-01-16T13:29:33;2.70;;;1.40;;
4508;SDS011;2267;48.816;9.230;2023-01-16T13:32:27;1.90;;;1.30;;
4508;SDS011;2267;48.816;9.230;2023-01-16T13:35:16;1.70;;;1.40;;
4508;SDS011;2267;48.816;9.230;2023-01-16T13:38:05;3.20;;;1.50;;
4508;SDS011;2267;48.816;9.230;2023-01-16T13:41:33;2.20;;;1.30;;
4508;SDS011;2267;48.816;9.230;2023-01-16T13:43:48;1.70;;;1.30;;
4508;SDS011;2267;48.816;9.230;2023-01-16T13:46:48;1.50;;;1.30;;
4508;SDS011;2267;48.816;9.230;2023-01-16T13:49:17;3.70;;;1.20;;
4508;SDS011;2267;48.816;9.230;2023-01-16T13:51:49;1.93;;;1.10;;
4508;SDS011;2267;48.816;9.230;2023-01-16T13:54:37;1.80;;;1.27;;
4508;SDS011;2267;48.816;9.230;2023-01-16T13:57:12;1.50;;;1.10;;
4508;SDS011;2267;48.816;9.230;2023-01-16T13:59:48;1.70;;;1.10;;
4508;SDS011;2267;48.816;9.230;2023-01-16T14:11:02;1.67;;;1.10;;
4508;SDS011;2267;48.816;9.230;2023-01-16T14:13:42;1.50;;;1.10;;
4508;SDS011;2267;48.816;9.230;2023-01-16T14:19:02;1.40;;;0.90;;
4508;SDS011;2267;48.816;9.230;2023-01-16T14:21:42;1.40;;;0.93;;
4508;SDS011;2267;48.816;9.230;2023-01-16T14:24:28;2.23;;;0.90;;
4508;SDS011;2267;48.816;9.230;2023-01-16T14:27:04;2.13;;;0.80;;
4508;SDS011;2267;48.816;9.230;2023-01-16T14:29:36;1.80;;;1.00;;
4508;SDS011;2267;48.816;9.230;2023-01-16T14:32:24;1.50;;;0.90;;
4508;SDS011;2267;48.816;9.230;2023-01-16T14:34:59;1.70;;;1.00;;
4508;SDS011;2267;48.816;9.230;2023-01-16T14:37:52;1.40;;;0.90;;
4508;SDS011;2267;48.816;9.230;2023-01-16T14:40:26;1.40;;;0.90;;
4508;SDS011;2267;48.816;9.230;2023-01-16T14:43:14;1.67;;;0.90;;
4508;SDS011;2267;48.816;9.230;2023-01-16T14:55:26;1.60;;;1.00;;
4508;SDS011;2267;48.816;9.230;2023-01-16T14:58:20;1.50;;;1.10;;
4508;SDS011;2267;48.816;9.230;2023-01-16T15:01:01;2.27;;;1.20;;
4508;SDS011;2267;48.816;9.230;2023-01-16T15:03:59;1.40;;;1.00;;
4508;SDS011;2267;48.816;9.230;2023-01-16T15:06:31;1.40;;;1.10;;
4508;SDS011;2267;48.816;9.230;2023-01-16T15:09:04;1.70;;;1.00;;
4508;SDS011;2267;48.816;9.230;2023-01-16T15:11:37;3.50;;;1.27;;
4508;SDS011;2267;48.816;9.230;2023-01-16T15:14:15;1.73;;;1.20;;
4508;SDS011;2267;48.816;9.230;2023-01-16T15:16:53;2.57;;;1.37;;
4508;SDS011;2267;48.816;9.230;2023-01-16T15:22:46;1.83;;;1.03;;
4508;SDS011;2267;48.816;9.230;2023-01-16T15:30:54;1.50;;;1.00;;
4508;SDS011;2267;48.816;9.230;2023-01-16T15:33:27;1.70;;;1.40;;
4508;SDS011;2267;48.816;9.230;2023-01-16T15:42:14;2.67;;;1.30;;
4508;SDS011;2267;48.816;9.230;2023-01-16T15:51:00;1.40;;;1.00;;
4508;SDS011;2267;48.816;9.230;2023-01-16T15:53:35;1.80;;;1.23;;
4508;SDS011;2267;48.816;9.230;2023-01-16T15:56:15;1.50;;;1.30;;
4508;SDS011;2267;48.816;9.230;2023-01-16T16:01:53;1.40;;;1.00;;
4508;SDS011;2267;48.816;9.230;2023-01-16T16:04:34;1.53;;;1.00;;
4508;SDS011;2267;48.816;9.230;2023-01-16T16:07:01;2.03;;;1.37;;
4508;SDS011;2267;48.816;9.230;2023-01-16T16:09:28;2.30;;;1.37;;
4508;SDS011;2267;48.816;9.230;2023-01-16T16:11:55;1.83;;;1.33;;
4508;SDS011;2267;48.816;9.230;2023-01-16T16:14:23;1.87;;;1.20;;
4508;SDS011;2267;48.816;9.230;2023-01-16T16:17:26;2.00;;;1.50;;
4508;SDS011;2267;48.816;9.230;2023-01-16T16:23:17;1.70;;;1.10;;
4508;SDS011;2267;48.816;9.230;2023-01-16T16:37:01;1.53;;;1.17;;
4508;SDS011;2267;48.816;9.230;2023-01-16T16:42:00;3.57;;;1.20;;
4508;SDS011;2267;48.816;9.230;2023-01-16T16:45:07;2.73;;;1.10;;
4508;SDS011;2267;48.816;9.230;2023-01-16T16:47:40;1.83;;;1.00;;
4508;SDS011;2267;48.816;9.230;2023-01-16T16:53:12;2.00;;;1.20;;
4508;SDS011;2267;48.816;9.230;2023-01-16T16:55:47;1.47;;;1.10;;
4508;SDS011;2267;48.816;9.230;2023-01-16T16:58:19;1.73;;;1.10;;
4508;SDS011;2267;48.816;9.230;2023-01-16T17:00:48;1.60;;;1.17;;
4508;SDS011;2267;48.816;9.230;2023-01-16T17:03:16;1.60;;;1.20;;
4508;SDS011;2267;48.816;9.230;2023-01-16T17:05:44;1.87;;;1.57;;
4508;SDS011;2267;48.816;9.230;2023-01-16T17:08:15;1.73;;;1.57;;
4508;SDS011;2267;48.816;9.230;2023-01-16T17:10:45;4.63;;;1.60;;
4508;SDS011;2267;48.816;9.230;2023-01-16T17:13:15;2.27;;;1.60;;
4508;SDS011;2267;48.816;9.230;2023-01-16T17:15:47;1.50;;;1.10;;
4508;SDS011;2267;48.816;9.230;2023-01-16T17:18:16;2.43;;;1.30;;
4508;SDS011;2267;48.816;9.230;2023-01-16T17:20:44;2.00;;;1.47;;
4508;SDS011;2267;48.816;9.230;2023-01-16T17:23:13;2.00;;;1.80;;
4508;SDS011;2267;48.816;9.230;2023-01-16T17:25:42;1.70;;;1.33;;
4508;SDS011;2267;48.816;9.230;2023-01-16T17:28:09;1.80;;;1.27;;
4508;SDS011;2267;48.816;9.230;2023-01-16T17:30:37;1.60;;;1.20;;
4508;SDS011;2267;48.816;9.230;2023-01-16T17:33:06;1.57;;;1.27;;
4508;SDS011;2267;48.816;9.230;2023-01-16T17:35:40;1.73;;;1.40;;
4508;SDS011;2267;48.816;9.230;2023-01-16T17:38:12;1.73;;;1.53;;
4508;SDS011;2267;48.816;9.230;2023-01-16T17:40:41;2.00;;;1.60;;
4508;SDS011;2267;48.816;9.230;2023-01-16T17:43:15;1.50;;;1.30;;
4508;SDS011;2267;48.816;9.230;2023-01-16T17:46:04;2.20;;;1.60;;
4508;SDS011;2267;48.816;9.230;2023-01-16T17:48:35;1.63;;;1.30;;
4508;SDS011;2267;48.816;9.230;2023-01-16T17:51:03;2.50;;;1.77;;
4508;SDS011;2267;48.816;9.230;2023-01-16T17:53:30;2.80;;;1.70;;
4508;SDS011;2267;48.816;9.230;2023-01-16T17:55:59;3.23;;;2.10;;
4508;SDS011;2267;48.816;9.230;2023-01-16T17:58:32;2.67;;;2.10;;
4508;SDS011;2267;48.816;9.230;2023-01-16T18:01:13;2.77;;;2.13;;
4508;SDS011;2267;48.816;9.230;2023-01-16T18:03:45;2.10;;;1.90;;
4508;SDS011;2267;48.816;9.230;2023-01-16T18:06:22;2.03;;;1.53;;
4508;SDS011;2267;48.816;9.230;2023-01-16T18:08:50;2.07;;;1.63;;
4508;SDS011;2267;48.816;9.230;2023-01-16T18:11:19;2.20;;;2.00;;
4508;SDS011;2267;48.816;9.230;2023-01-16T18:14:11;1.90;;;1.70;;
4508;SDS011;2267;48.816;9.230;2023-01-16T18:16:57;1.70;;;1.50;;
4508;SDS011;2267;48.816;9.230;2023-01-16T18:19:43;1.50;;;1.27;;
4508;SDS011;2267;48.816;9.230;2023-01-16T18:22:09;2.50;;;1.80;;
4508;SDS011;2267;48.816;9.230;2023-01-16T18:24:37;2.00;;;1.20;;
4508;SDS011;2267;48.816;9.230;2023-01-16T18:27:09;1.80;;;1.40;;
4508;SDS011;2267;48.816;9.230;2023-01-16T18:29:40;1.87;;;1.17;;
4508;SDS011;2267;48.816;9.230;2023-01-16T18:32:08;1.83;;;1.27;;
4508;SDS011;2267;48.816;9.230;2023-01-16T18:34:58;1.77;;;1.47;;
4508;SDS011;2267;48.816;9.230;2023-01-16T18:37:32;1.60;;;1.37;;
4508;SDS011;2267;48.816;9.230;2023-01-16T18:39:59;1.80;;;1.50;;
4508;SDS011;2267;48.816;9.230;2023-01-16T18:42:49;1.50;;;1.20;;